sensor_id;sensor_type;location;lat;lon;timestamp;P1;durP1;ratioP1;P2;durP2;ratioP2
33954;SDS011;20233;50.804;7.126;2024-03-17T00:01:32;13.13;;;8.23;;
33954;SDS011;20233;50.804;7.126;2024-03-17T00:03:58;14.80;;;8.13;;
33954;SDS011;20233;50.804;7.126;2024-03-17T00:06:24;14.88;;;8.32;;
33954;SDS011;20233;50.804;7.126;2024-03-17T00:08:49;13.60;;;7.22;;
33954;SDS011;20233;50.804;7.126;2024-03-17T00:11:15;13.63;;;7.70;;
33954;SDS011;20233;50.804;7.126;2024-03-17T00:13:41;13.32;;;7.60;;
33954;SDS011;20233;50.804;7.126;2024-03-17T00:16:06;12.52;;;6.88;;
33954;SDS011;20233;50.804;7.126;2024-03-17T00:18:32;12.65;;;7.55;;
33954;SDS011;20233;50.804;7.126;2024-03-17T00:20:58;11.70;;;6.93;;
33954;SDS011;20233;50.804;7.126;2024-03-17T00:23:24;12.30;;;6.43;;
33954;SDS011;20233;50.804;7.126;2024-03-17T00:25:50;10.30;;;6.68;;
33954;SDS011;20233;50.804;7.126;2024-03-17T00:28:16;11.32;;;6.70;;
33954;SDS011;20233;50.804;7.126;2024-03-17T00:30:41;14.90;;;6.55;;
33954;SDS011;20233;50.804;7.126;2024-03-17T00:33:07;10.95;;;6.80;;
33954;SDS011;20233;50.804;7.126;2024-03-17T00:35:33;10.05;;;7.05;;
33954;SDS011;20233;50.804;7.126;2024-03-17T00:37:58;12.35;;;7.25;;
33954;SDS011;20233;50.804;7.126;2024-03-17T00:40:25;9.55;;;6.90;;
33954;SDS011;20233;50.804;7.126;2024-03-17T00:42:50;12.30;;;6.57;;
33954;SDS011;20233;50.804;7.126;2024-03-17T00:45:16;11.60;;;6.78;;
33954;SDS011;20233;50.804;7.126;2024-03-17T00:47:42;13.65;;;6.57;;
33954;SDS011;20233;50.804;7.126;2024-03-17T00:50:09;13.07;;;6.38;;
33954;SDS011;20233;50.804;7.126;2024-03-17T00:52:36;10.32;;;6.40;;
33954;SDS011;20233;50.804;7.126;2024-03-17T00:55:02;8.90;;;6.07;;
33954;SDS011;20233;50.804;7.126;2024-03-17T00:57:28;11.68;;;6.40;;
33954;SDS011;20233;50.804;7.126;2024-03-17T00:59:54;11.32;;;6.93;;
33954;SDS011;20233;50.804;7.126;2024-03-17T01:02:19;11.85;;;7.05;;
33954;SDS011;20233;50.804;7.126;2024-03-17T01:04:46;15.45;;;7.80;;
33954;SDS011;20233;50.804;7.126;2024-03-17T01:07:12;14.60;;;7.50;;
33954;SDS011;20233;50.804;7.126;2024-03-17T01:09:38;16.10;;;7.90;;
33954;SDS011;20233;50.804;7.126;2024-03-17T01:12:04;12.75;;;7.53;;
33954;SDS011;20233;50.804;7.126;2024-03-17T01:14:30;16.00;;;7.80;;
33954;SDS011;20233;50.804;7.126;2024-03-17T01:16:56;11.52;;;7.80;;
33954;SDS011;20233;50.804;7.126;2024-03-17T01:19:22;14.65;;;8.05;;
33954;SDS011;20233;50.804;7.126;2024-03-17T01:21:49;12.32;;;8.43;;
33954;SDS011;20233;50.804;7.126;2024-03-17T01:24:16;17.27;;;8.60;;
33954;SDS011;20233;50.804;7.126;2024-03-17T01:26:42;15.80;;;8.38;;
33954;SDS011;20233;50.804;7.126;2024-03-17T01:29:07;14.90;;;8.13;;
33954;SDS011;20233;50.804;7.126;2024-03-17T01:31:34;18.58;;;8.63;;
33954;SDS011;20233;50.804;7.126;2024-03-17T01:34:00;14.43;;;8.13;;
33954;SDS011;20233;50.804;7.126;2024-03-17T01:36:26;17.20;;;8.20;;
33954;SDS011;20233;50.804;7.126;2024-03-17T01:38:51;15.55;;;8.25;;
33954;SDS011;20233;50.804;7.126;2024-03-17T01:41:17;14.88;;;7.50;;
33954;SDS011;20233;50.804;7.126;2024-03-17T01:43:42;14.95;;;8.95;;
33954;SDS011;20233;50.804;7.126;2024-03-17T01:46:10;17.00;;;9.00;;
33954;SDS011;20233;50.804;7.126;2024-03-17T01:48:38;16.15;;;8.35;;
33954;SDS011;20233;50.804;7.126;2024-03-17T01:51:05;14.27;;;8.85;;
33954;SDS011;20233;50.804;7.126;2024-03-17T01:53:32;17.63;;;8.43;;
33954;SDS011;20233;50.804;7.126;2024-03-17T01:55:58;15.30;;;8.82;;
33954;SDS011;20233;50.804;7.126;2024-03-17T01:58:25;15.32;;;8.30;;
33954;SDS011;20233;50.804;7.126;2024-03-17T02:00:52;15.70;;;7.95;;
33954;SDS011;20233;50.804;7.126;2024-03-17T02:03:17;15.65;;;8.13;;
33954;SDS011;20233;50.804;7.126;2024-03-17T02:05:43;14.82;;;8.25;;
33954;SDS011;20233;50.804;7.126;2024-03-17T02:08:09;14.18;;;9.10;;
33954;SDS011;20233;50.804;7.126;2024-03-17T02:10:36;15.60;;;8.43;;
33954;SDS011;20233;50.804;7.126;2024-03-17T02:13:02;13.63;;;8.43;;
33954;SDS011;20233;50.804;7.126;2024-03-17T02:15:28;16.00;;;9.07;;
33954;SDS011;20233;50.804;7.126;2024-03-17T02:17:54;14.20;;;8.30;;
33954;SDS011;20233;50.804;7.126;2024-03-17T02:20:20;13.63;;;8.25;;
33954;SDS011;20233;50.804;7.126;2024-03-17T02:22:50;12.25;;;8.98;;
33954;SDS011;20233;50.804;7.126;2024-03-17T02:25:15;14.20;;;8.25;;
33954;SDS011;20233;50.804;7.126;2024-03-17T02:27:41;12.27;;;8.20;;
33954;SDS011;20233;50.804;7.126;2024-03-17T02:30:06;15.25;;;8.80;;
33954;SDS011;20233;50.804;7.126;2024-03-17T02:32:35;16.35;;;8.70;;
33954;SDS011;20233;50.804;7.126;2024-03-17T02:35:01;15.25;;;9.30;;
33954;SDS011;20233;50.804;7.126;2024-03-17T02:37:27;15.52;;;8.05;;
33954;SDS011;20233;50.804;7.126;2024-03-17T02:39:53;11.80;;;7.85;;
33954;SDS011;20233;50.804;7.126;2024-03-17T02:42:19;13.35;;;8.68;;
33954;SDS011;20233;50.804;7.126;2024-03-17T02:44:44;14.20;;;7.80;;
33954;SDS011;20233;50.804;7.126;2024-03-17T02:47:10;14.50;;;8.02;;
33954;SDS011;20233;50.804;7.126;2024-03-17T02:49:39;12.73;;;8.27;;
33954;SDS011;20233;50.804;7.126;2024-03-17T02:52:08;16.17;;;9.18;;
33954;SDS011;20233;50.804;7.126;2024-03-17T02:54:37;16.23;;;9.45;;
33954;SDS011;20233;50.804;7.126;2024-03-17T02:57:04;16.45;;;8.35;;
33954;SDS011;20233;50.804;7.126;2024-03-17T02:59:31;14.40;;;7.93;;
33954;SDS011;20233;50.804;7.126;2024-03-17T03:01:58;13.85;;;8.48;;
33954;SDS011;20233;50.804;7.126;2024-03-17T03:04:24;14.30;;;8.32;;
33954;SDS011;20233;50.804;7.126;2024-03-17T03:06:49;13.63;;;9.45;;
33954;SDS011;20233;50.804;7.126;2024-03-17T03:09:15;14.77;;;8.20;;
33954;SDS011;20233;50.804;7.126;2024-03-17T03:11:46;16.05;;;8.75;;
33954;SDS011;20233;50.804;7.126;2024-03-17T03:14:12;17.20;;;7.68;;
33954;SDS011;20233;50.804;7.126;2024-03-17T03:16:38;13.82;;;8.57;;
33954;SDS011;20233;50.804;7.126;2024-03-17T03:19:03;13.88;;;8.07;;
33954;SDS011;20233;50.804;7.126;2024-03-17T03:21:30;14.60;;;9.35;;
33954;SDS011;20233;50.804;7.126;2024-03-17T03:23:56;15.05;;;8.70;;
33954;SDS011;20233;50.804;7.126;2024-03-17T03:26:21;12.30;;;8.02;;
33954;SDS011;20233;50.804;7.126;2024-03-17T03:28:48;17.17;;;8.75;;
33954;SDS011;20233;50.804;7.126;2024-03-17T03:31:15;14.57;;;8.23;;
33954;SDS011;20233;50.804;7.126;2024-03-17T03:33:42;15.10;;;8.35;;
33954;SDS011;20233;50.804;7.126;2024-03-17T03:36:09;15.60;;;8.75;;
33954;SDS011;20233;50.804;7.126;2024-03-17T03:38:35;13.50;;;8.73;;
33954;SDS011;20233;50.804;7.126;2024-03-17T03:43:34;12.23;;;8.07;;
33954;SDS011;20233;50.804;7.126;2024-03-17T03:46:00;14.35;;;8.30;;
33954;SDS011;20233;50.804;7.126;2024-03-17T03:48:26;14.43;;;8.68;;
33954;SDS011;20233;50.804;7.126;2024-03-17T03:50:52;18.02;;;8.77;;
33954;SDS011;20233;50.804;7.126;2024-03-17T03:53:19;15.25;;;8.38;;
33954;SDS011;20233;50.804;7.126;2024-03-17T03:55:45;15.68;;;8.90;;
33954;SDS011;20233;50.804;7.126;2024-03-17T03:58:10;13.60;;;8.15;;
33954;SDS011;20233;50.804;7.126;2024-03-17T04:00:37;15.93;;;9.32;;
33954;SDS011;20233;50.804;7.126;2024-03-17T04:03:04;17.35;;;9.32;;
33954;SDS011;20233;50.804;7.126;2024-03-17T04:05:30;17.45;;;8.52;;
33954;SDS011;20233;50.804;7.126;2024-03-17T04:07:56;14.73;;;8.35;;
33954;SDS011;20233;50.804;7.126;2024-03-17T04:10:22;18.55;;;8.85;;
33954;SDS011;20233;50.804;7.126;2024-03-17T04:12:49;14.80;;;8.85;;
33954;SDS011;20233;50.804;7.126;2024-03-17T04:15:14;16.27;;;8.25;;
33954;SDS011;20233;50.804;7.126;2024-03-17T04:17:40;13.88;;;8.07;;
33954;SDS011;20233;50.804;7.126;2024-03-17T04:20:07;12.50;;;8.20;;
33954;SDS011;20233;50.804;7.126;2024-03-17T04:22:34;14.55;;;8.52;;
33954;SDS011;20233;50.804;7.126;2024-03-17T04:25:00;15.98;;;7.78;;
33954;SDS011;20233;50.804;7.126;2024-03-17T04:27:26;15.98;;;7.95;;
33954;SDS011;20233;50.804;7.126;2024-03-17T04:29:52;13.40;;;8.70;;
33954;SDS011;20233;50.804;7.126;2024-03-17T04:32:19;11.50;;;7.32;;
33954;SDS011;20233;50.804;7.126;2024-03-17T04:34:45;11.40;;;7.57;;
33954;SDS011;20233;50.804;7.126;2024-03-17T04:37:10;17.00;;;8.18;;
33954;SDS011;20233;50.804;7.126;2024-03-17T04:39:39;14.55;;;8.68;;
33954;SDS011;20233;50.804;7.126;2024-03-17T04:42:07;13.43;;;7.95;;
33954;SDS011;20233;50.804;7.126;2024-03-17T04:44:32;14.30;;;8.30;;
33954;SDS011;20233;50.804;7.126;2024-03-17T04:46:58;14.65;;;8.05;;
33954;SDS011;20233;50.804;7.126;2024-03-17T04:49:23;14.90;;;8.02;;
33954;SDS011;20233;50.804;7.126;2024-03-17T04:51:49;13.70;;;7.45;;
33954;SDS011;20233;50.804;7.126;2024-03-17T04:54:14;14.68;;;7.43;;
33954;SDS011;20233;50.804;7.126;2024-03-17T04:56:40;14.05;;;8.73;;
33954;SDS011;20233;50.804;7.126;2024-03-17T04:59:06;18.75;;;8.60;;
33954;SDS011;20233;50.804;7.126;2024-03-17T05:01:32;12.27;;;7.57;;
33954;SDS011;20233;50.804;7.126;2024-03-17T05:04:01;12.52;;;7.95;;
33954;SDS011;20233;50.804;7.126;2024-03-17T05:06:28;14.05;;;8.05;;
33954;SDS011;20233;50.804;7.126;2024-03-17T05:08:53;16.38;;;7.68;;
33954;SDS011;20233;50.804;7.126;2024-03-17T05:11:19;15.98;;;8.00;;
33954;SDS011;20233;50.804;7.126;2024-03-17T05:13:45;14.98;;;8.30;;
33954;SDS011;20233;50.804;7.126;2024-03-17T05:16:10;13.80;;;8.27;;
33954;SDS011;20233;50.804;7.126;2024-03-17T05:18:36;16.65;;;8.50;;
33954;SDS011;20233;50.804;7.126;2024-03-17T05:21:04;14.20;;;8.38;;
33954;SDS011;20233;50.804;7.126;2024-03-17T05:23:32;14.02;;;7.57;;
33954;SDS011;20233;50.804;7.126;2024-03-17T05:25:59;15.00;;;7.70;;
33954;SDS011;20233;50.804;7.126;2024-03-17T05:28:25;15.73;;;8.40;;
33954;SDS011;20233;50.804;7.126;2024-03-17T05:30:52;12.68;;;8.98;;
33954;SDS011;20233;50.804;7.126;2024-03-17T05:33:18;13.70;;;7.65;;
33954;SDS011;20233;50.804;7.126;2024-03-17T05:35:53;16.13;;;8.82;;
33954;SDS011;20233;50.804;7.126;2024-03-17T05:38:23;15.00;;;8.27;;
33954;SDS011;20233;50.804;7.126;2024-03-17T05:40:56;11.27;;;7.63;;
33954;SDS011;20233;50.804;7.126;2024-03-17T05:43:24;11.65;;;7.78;;
33954;SDS011;20233;50.804;7.126;2024-03-17T05:45:54;15.23;;;8.75;;
33954;SDS011;20233;50.804;7.126;2024-03-17T05:50:49;13.23;;;7.72;;
33954;SDS011;20233;50.804;7.126;2024-03-17T05:53:16;12.60;;;7.85;;
33954;SDS011;20233;50.804;7.126;2024-03-17T05:55:43;13.13;;;7.05;;
33954;SDS011;20233;50.804;7.126;2024-03-17T05:58:09;13.77;;;7.70;;
33954;SDS011;20233;50.804;7.126;2024-03-17T06:00:35;14.68;;;8.32;;
33954;SDS011;20233;50.804;7.126;2024-03-17T06:03:01;14.15;;;7.63;;
33954;SDS011;20233;50.804;7.126;2024-03-17T06:05:31;16.80;;;8.38;;
33954;SDS011;20233;50.804;7.126;2024-03-17T06:07:58;15.48;;;8.90;;
33954;SDS011;20233;50.804;7.126;2024-03-17T06:10:23;16.15;;;8.23;;
33954;SDS011;20233;50.804;7.126;2024-03-17T06:12:49;15.77;;;9.00;;
33954;SDS011;20233;50.804;7.126;2024-03-17T06:15:16;20.55;;;8.82;;
33954;SDS011;20233;50.804;7.126;2024-03-17T06:17:41;12.18;;;7.97;;
33954;SDS011;20233;50.804;7.126;2024-03-17T06:20:07;17.92;;;9.02;;
33954;SDS011;20233;50.804;7.126;2024-03-17T06:22:38;12.55;;;8.10;;
33954;SDS011;20233;50.804;7.126;2024-03-17T06:25:04;15.63;;;7.88;;
33954;SDS011;20233;50.804;7.126;2024-03-17T06:27:30;14.18;;;8.40;;
33954;SDS011;20233;50.804;7.126;2024-03-17T06:29:56;15.18;;;8.70;;
33954;SDS011;20233;50.804;7.126;2024-03-17T06:32:22;15.02;;;8.25;;
33954;SDS011;20233;50.804;7.126;2024-03-17T06:34:47;12.18;;;8.68;;
33954;SDS011;20233;50.804;7.126;2024-03-17T06:37:13;17.02;;;9.10;;
33954;SDS011;20233;50.804;7.126;2024-03-17T06:39:38;14.60;;;10.32;;
33954;SDS011;20233;50.804;7.126;2024-03-17T06:42:04;14.48;;;9.75;;
33954;SDS011;20233;50.804;7.126;2024-03-17T06:44:30;16.25;;;9.48;;
33954;SDS011;20233;50.804;7.126;2024-03-17T06:46:57;18.02;;;8.93;;
33954;SDS011;20233;50.804;7.126;2024-03-17T06:49:23;14.73;;;8.77;;
33954;SDS011;20233;50.804;7.126;2024-03-17T06:51:49;17.63;;;11.25;;
33954;SDS011;20233;50.804;7.126;2024-03-17T06:54:14;15.20;;;9.40;;
33954;SDS011;20233;50.804;7.126;2024-03-17T06:56:40;12.52;;;8.43;;
33954;SDS011;20233;50.804;7.126;2024-03-17T06:59:05;15.00;;;9.00;;
33954;SDS011;20233;50.804;7.126;2024-03-17T07:01:31;17.02;;;9.18;;
33954;SDS011;20233;50.804;7.126;2024-03-17T07:03:57;18.50;;;9.65;;
33954;SDS011;20233;50.804;7.126;2024-03-17T07:06:24;17.25;;;9.50;;
33954;SDS011;20233;50.804;7.126;2024-03-17T07:08:51;17.25;;;9.73;;
33954;SDS011;20233;50.804;7.126;2024-03-17T07:11:17;13.82;;;8.77;;
33954;SDS011;20233;50.804;7.126;2024-03-17T07:13:42;13.90;;;8.05;;
33954;SDS011;20233;50.804;7.126;2024-03-17T07:16:08;16.23;;;8.90;;
33954;SDS011;20233;50.804;7.126;2024-03-17T07:18:35;15.50;;;8.95;;
33954;SDS011;20233;50.804;7.126;2024-03-17T07:21:02;16.65;;;9.30;;
33954;SDS011;20233;50.804;7.126;2024-03-17T07:23:34;13.75;;;9.05;;
33954;SDS011;20233;50.804;7.126;2024-03-17T07:26:01;18.95;;;9.65;;
33954;SDS011;20233;50.804;7.126;2024-03-17T07:28:27;16.45;;;9.98;;
33954;SDS011;20233;50.804;7.126;2024-03-17T07:30:54;16.92;;;9.90;;
33954;SDS011;20233;50.804;7.126;2024-03-17T07:33:21;17.38;;;9.77;;
33954;SDS011;20233;50.804;7.126;2024-03-17T07:35:53;16.38;;;9.38;;
33954;SDS011;20233;50.804;7.126;2024-03-17T07:38:21;18.90;;;9.65;;
33954;SDS011;20233;50.804;7.126;2024-03-17T07:40:59;13.93;;;9.23;;
33954;SDS011;20233;50.804;7.126;2024-03-17T07:43:26;15.25;;;9.35;;
33954;SDS011;20233;50.804;7.126;2024-03-17T07:48:29;16.13;;;9.90;;
33954;SDS011;20233;50.804;7.126;2024-03-17T07:50:56;16.95;;;9.05;;
33954;SDS011;20233;50.804;7.126;2024-03-17T07:53:27;15.40;;;9.30;;
33954;SDS011;20233;50.804;7.126;2024-03-17T07:56:05;15.75;;;8.80;;
33954;SDS011;20233;50.804;7.126;2024-03-17T07:58:36;12.77;;;8.15;;
33954;SDS011;20233;50.804;7.126;2024-03-17T08:01:03;17.52;;;8.68;;
33954;SDS011;20233;50.804;7.126;2024-03-17T08:03:35;14.40;;;8.27;;
33954;SDS011;20233;50.804;7.126;2024-03-17T08:06:05;14.50;;;8.40;;
33954;SDS011;20233;50.804;7.126;2024-03-17T08:08:32;15.38;;;8.60;;
33954;SDS011;20233;50.804;7.126;2024-03-17T08:10:58;15.25;;;8.20;;
33954;SDS011;20233;50.804;7.126;2024-03-17T08:13:24;12.13;;;8.05;;
33954;SDS011;20233;50.804;7.126;2024-03-17T08:15:57;12.55;;;7.80;;
33954;SDS011;20233;50.804;7.126;2024-03-17T08:18:27;12.30;;;7.05;;
33954;SDS011;20233;50.804;7.126;2024-03-17T08:20:53;15.68;;;7.63;;
33954;SDS011;20233;50.804;7.126;2024-03-17T08:23:19;12.32;;;7.07;;
33954;SDS011;20233;50.804;7.126;2024-03-17T08:25:58;9.18;;;5.22;;
33954;SDS011;20233;50.804;7.126;2024-03-17T08:28:25;13.05;;;6.68;;
33954;SDS011;20233;50.804;7.126;2024-03-17T08:30:55;9.60;;;5.95;;
33954;SDS011;20233;50.804;7.126;2024-03-17T08:33:23;8.57;;;5.18;;
33954;SDS011;20233;50.804;7.126;2024-03-17T08:36:05;10.82;;;5.22;;
33954;SDS011;20233;50.804;7.126;2024-03-17T08:38:34;7.65;;;4.03;;
33954;SDS011;20233;50.804;7.126;2024-03-17T08:41:08;6.07;;;3.42;;
33954;SDS011;20233;50.804;7.126;2024-03-17T08:43:35;5.68;;;2.67;;
33954;SDS011;20233;50.804;7.126;2024-03-17T08:46:05;4.63;;;2.78;;
33954;SDS011;20233;50.804;7.126;2024-03-17T08:48:35;4.75;;;3.33;;
33954;SDS011;20233;50.804;7.126;2024-03-17T08:51:03;6.50;;;3.42;;
33954;SDS011;20233;50.804;7.126;2024-03-17T08:53:30;8.45;;;4.57;;
33954;SDS011;20233;50.804;7.126;2024-03-17T08:55:56;8.57;;;4.82;;
33954;SDS011;20233;50.804;7.126;2024-03-17T08:58:23;8.68;;;4.70;;
33954;SDS011;20233;50.804;7.126;2024-03-17T09:00:49;9.07;;;4.63;;
33954;SDS011;20233;50.804;7.126;2024-03-17T09:03:16;7.85;;;5.07;;
33954;SDS011;20233;50.804;7.126;2024-03-17T09:05:43;6.35;;;4.13;;
33954;SDS011;20233;50.804;7.126;2024-03-17T09:08:16;7.63;;;4.13;;
33954;SDS011;20233;50.804;7.126;2024-03-17T09:10:45;10.70;;;5.43;;
33954;SDS011;20233;50.804;7.126;2024-03-17T09:13:13;6.65;;;3.97;;
33954;SDS011;20233;50.804;7.126;2024-03-17T09:18:29;6.00;;;4.03;;
33954;SDS011;20233;50.804;7.126;2024-03-17T09:23:29;6.53;;;3.53;;
33954;SDS011;20233;50.804;7.126;2024-03-17T09:25:58;5.53;;;3.47;;
33954;SDS011;20233;50.804;7.126;2024-03-17T09:28:26;4.32;;;2.88;;
33954;SDS011;20233;50.804;7.126;2024-03-17T09:30:52;4.95;;;3.08;;
33954;SDS011;20233;50.804;7.126;2024-03-17T09:33:21;5.63;;;2.80;;
33954;SDS011;20233;50.804;7.126;2024-03-17T09:35:56;3.97;;;2.25;;
33954;SDS011;20233;50.804;7.126;2024-03-17T09:38:24;5.05;;;2.78;;
33954;SDS011;20233;50.804;7.126;2024-03-17T09:40:50;4.90;;;1.70;;
33954;SDS011;20233;50.804;7.126;2024-03-17T09:43:20;4.30;;;2.40;;
33954;SDS011;20233;50.804;7.126;2024-03-17T09:45:47;3.53;;;1.77;;
33954;SDS011;20233;50.804;7.126;2024-03-17T09:48:15;5.43;;;1.80;;
33954;SDS011;20233;50.804;7.126;2024-03-17T09:50:49;4.60;;;2.17;;
33954;SDS011;20233;50.804;7.126;2024-03-17T09:53:24;6.05;;;2.03;;
33954;SDS011;20233;50.804;7.126;2024-03-17T09:55:52;4.05;;;1.70;;
33954;SDS011;20233;50.804;7.126;2024-03-17T09:58:21;2.22;;;1.50;;
33954;SDS011;20233;50.804;7.126;2024-03-17T10:00:47;4.95;;;1.90;;
33954;SDS011;20233;50.804;7.126;2024-03-17T10:03:38;3.35;;;1.52;;
33954;SDS011;20233;50.804;7.126;2024-03-17T10:06:05;2.40;;;1.13;;
33954;SDS011;20233;50.804;7.126;2024-03-17T10:08:30;5.05;;;1.58;;
33954;SDS011;20233;50.804;7.126;2024-03-17T10:10:59;2.85;;;1.13;;
33954;SDS011;20233;50.804;7.126;2024-03-17T10:13:24;5.30;;;1.50;;
33954;SDS011;20233;50.804;7.126;2024-03-17T10:15:50;3.17;;;1.50;;
33954;SDS011;20233;50.804;7.126;2024-03-17T10:18:22;2.95;;;1.70;;
33954;SDS011;20233;50.804;7.126;2024-03-17T10:20:50;3.42;;;1.50;;
33954;SDS011;20233;50.804;7.126;2024-03-17T10:23:23;4.43;;;1.52;;
33954;SDS011;20233;50.804;7.126;2024-03-17T10:25:49;4.28;;;2.05;;
33954;SDS011;20233;50.804;7.126;2024-03-17T10:28:16;3.97;;;1.70;;
33954;SDS011;20233;50.804;7.126;2024-03-17T10:30:59;4.93;;;1.30;;
33954;SDS011;20233;50.804;7.126;2024-03-17T10:33:25;4.13;;;1.95;;
33954;SDS011;20233;50.804;7.126;2024-03-17T10:35:58;6.32;;;1.90;;
33954;SDS011;20233;50.804;7.126;2024-03-17T10:38:26;4.97;;;2.40;;
33954;SDS011;20233;50.804;7.126;2024-03-17T10:40:53;4.93;;;1.60;;
33954;SDS011;20233;50.804;7.126;2024-03-17T10:43:19;4.10;;;1.85;;
33954;SDS011;20233;50.804;7.126;2024-03-17T10:45:49;2.90;;;1.77;;
33954;SDS011;20233;50.804;7.126;2024-03-17T10:48:16;3.90;;;2.25;;
33954;SDS011;20233;50.804;7.126;2024-03-17T10:50:46;5.07;;;1.80;;
33954;SDS011;20233;50.804;7.126;2024-03-17T10:53:13;4.65;;;1.77;;
33954;SDS011;20233;50.804;7.126;2024-03-17T10:55:44;3.47;;;1.60;;
33954;SDS011;20233;50.804;7.126;2024-03-17T10:58:21;5.38;;;1.88;;
33954;SDS011;20233;50.804;7.126;2024-03-17T11:00:55;5.78;;;2.13;;
33954;SDS011;20233;50.804;7.126;2024-03-17T11:03:21;4.05;;;1.77;;
33954;SDS011;20233;50.804;7.126;2024-03-17T11:05:48;4.90;;;1.70;;
33954;SDS011;20233;50.804;7.126;2024-03-17T11:08:15;5.47;;;1.60;;
33954;SDS011;20233;50.804;7.126;2024-03-17T11:10:48;3.53;;;1.67;;
33954;SDS011;20233;50.804;7.126;2024-03-17T11:13:23;4.70;;;1.73;;
33954;SDS011;20233;50.804;7.126;2024-03-17T11:15:56;5.43;;;1.80;;
33954;SDS011;20233;50.804;7.126;2024-03-17T11:23:57;3.78;;;2.40;;
33954;SDS011;20233;50.804;7.126;2024-03-17T11:26:31;3.50;;;2.03;;
33954;SDS011;20233;50.804;7.126;2024-03-17T11:28:58;5.05;;;2.08;;
33954;SDS011;20233;50.804;7.126;2024-03-17T11:31:32;3.20;;;2.03;;
33954;SDS011;20233;50.804;7.126;2024-03-17T11:33:58;3.70;;;1.40;;
33954;SDS011;20233;50.804;7.126;2024-03-17T11:38:54;4.05;;;1.83;;
33954;SDS011;20233;50.804;7.126;2024-03-17T11:49:37;4.07;;;2.28;;
33954;SDS011;20233;50.804;7.126;2024-03-17T11:52:14;3.53;;;2.05;;
33954;SDS011;20233;50.804;7.126;2024-03-17T11:54:41;8.18;;;2.30;;
33954;SDS011;20233;50.804;7.126;2024-03-17T11:57:12;3.72;;;2.17;;
33954;SDS011;20233;50.804;7.126;2024-03-17T11:59:39;4.60;;;1.92;;
33954;SDS011;20233;50.804;7.126;2024-03-17T12:04:44;3.50;;;1.90;;
33954;SDS011;20233;50.804;7.126;2024-03-17T12:07:14;5.15;;;1.90;;
33954;SDS011;20233;50.804;7.126;2024-03-17T12:09:41;2.58;;;1.55;;
33954;SDS011;20233;50.804;7.126;2024-03-17T12:12:11;6.05;;;2.10;;
33954;SDS011;20233;50.804;7.126;2024-03-17T12:14:41;3.72;;;1.83;;
33954;SDS011;20233;50.804;7.126;2024-03-17T12:17:07;4.38;;;2.22;;
33954;SDS011;20233;50.804;7.126;2024-03-17T12:19:35;4.63;;;1.60;;
33954;SDS011;20233;50.804;7.126;2024-03-17T12:22:03;4.32;;;2.20;;
33954;SDS011;20233;50.804;7.126;2024-03-17T12:24:31;2.97;;;1.70;;
33954;SDS011;20233;50.804;7.126;2024-03-17T12:27:04;3.15;;;1.70;;
33954;SDS011;20233;50.804;7.126;2024-03-17T12:29:37;6.00;;;2.38;;
33954;SDS011;20233;50.804;7.126;2024-03-17T12:32:11;3.97;;;1.63;;
33954;SDS011;20233;50.804;7.126;2024-03-17T12:34:49;5.13;;;2.05;;
33954;SDS011;20233;50.804;7.126;2024-03-17T12:37:16;4.03;;;1.85;;
33954;SDS011;20233;50.804;7.126;2024-03-17T12:39:50;6.35;;;3.08;;
33954;SDS011;20233;50.804;7.126;2024-03-17T12:42:17;4.63;;;1.85;;
33954;SDS011;20233;50.804;7.126;2024-03-17T12:44:58;5.03;;;2.17;;
33954;SDS011;20233;50.804;7.126;2024-03-17T12:47:25;4.30;;;1.92;;
33954;SDS011;20233;50.804;7.126;2024-03-17T12:49:56;4.72;;;2.55;;
33954;SDS011;20233;50.804;7.126;2024-03-17T12:52:29;4.97;;;1.98;;
33954;SDS011;20233;50.804;7.126;2024-03-17T12:57:52;6.85;;;2.30;;
33954;SDS011;20233;50.804;7.126;2024-03-17T13:01:05;4.45;;;2.15;;
33954;SDS011;20233;50.804;7.126;2024-03-17T13:03:35;4.35;;;2.17;;
33954;SDS011;20233;50.804;7.126;2024-03-17T13:06:01;2.80;;;1.55;;
33954;SDS011;20233;50.804;7.126;2024-03-17T13:08:29;4.93;;;1.85;;
33954;SDS011;20233;50.804;7.126;2024-03-17T13:10:56;5.15;;;2.10;;
33954;SDS011;20233;50.804;7.126;2024-03-17T13:13:22;3.25;;;1.50;;
33954;SDS011;20233;50.804;7.126;2024-03-17T13:15:48;4.68;;;1.92;;
33954;SDS011;20233;50.804;7.126;2024-03-17T13:18:16;4.85;;;2.03;;
33954;SDS011;20233;50.804;7.126;2024-03-17T13:20:44;4.70;;;2.25;;
33954;SDS011;20233;50.804;7.126;2024-03-17T13:23:10;4.82;;;1.92;;
33954;SDS011;20233;50.804;7.126;2024-03-17T13:25:36;3.95;;;1.90;;
33954;SDS011;20233;50.804;7.126;2024-03-17T13:28:03;5.72;;;2.05;;
33954;SDS011;20233;50.804;7.126;2024-03-17T13:30:29;4.75;;;2.30;;
33954;SDS011;20233;50.804;7.126;2024-03-17T13:32:56;5.65;;;1.92;;
33954;SDS011;20233;50.804;7.126;2024-03-17T13:35:28;2.88;;;1.45;;
33954;SDS011;20233;50.804;7.126;2024-03-17T13:37:55;4.70;;;1.80;;
33954;SDS011;20233;50.804;7.126;2024-03-17T13:40:25;3.30;;;1.77;;
33954;SDS011;20233;50.804;7.126;2024-03-17T13:42:52;2.92;;;1.40;;
33954;SDS011;20233;50.804;7.126;2024-03-17T13:45:19;4.47;;;1.90;;
33954;SDS011;20233;50.804;7.126;2024-03-17T13:47:46;4.40;;;1.80;;
33954;SDS011;20233;50.804;7.126;2024-03-17T13:50:14;3.78;;;1.60;;
33954;SDS011;20233;50.804;7.126;2024-03-17T13:52:40;4.50;;;2.20;;
33954;SDS011;20233;50.804;7.126;2024-03-17T13:55:17;5.95;;;2.30;;
33954;SDS011;20233;50.804;7.126;2024-03-17T13:57:45;4.60;;;2.15;;
33954;SDS011;20233;50.804;7.126;2024-03-17T14:00:12;3.70;;;1.90;;
33954;SDS011;20233;50.804;7.126;2024-03-17T14:02:45;5.57;;;2.17;;
33954;SDS011;20233;50.804;7.126;2024-03-17T14:05:15;2.83;;;1.50;;
33954;SDS011;20233;50.804;7.126;2024-03-17T14:07:43;5.30;;;1.70;;
33954;SDS011;20233;50.804;7.126;2024-03-17T14:10:10;3.72;;;2.03;;
33954;SDS011;20233;50.804;7.126;2024-03-17T14:12:38;3.33;;;1.67;;
33954;SDS011;20233;50.804;7.126;2024-03-17T14:15:10;3.22;;;1.95;;
33954;SDS011;20233;50.804;7.126;2024-03-17T14:17:41;3.30;;;1.98;;
33954;SDS011;20233;50.804;7.126;2024-03-17T14:20:11;3.70;;;2.15;;
33954;SDS011;20233;50.804;7.126;2024-03-17T14:22:41;5.53;;;2.00;;
33954;SDS011;20233;50.804;7.126;2024-03-17T14:25:08;3.00;;;1.97;;
33954;SDS011;20233;50.804;7.126;2024-03-17T14:30:05;4.35;;;2.20;;
33954;SDS011;20233;50.804;7.126;2024-03-17T14:32:31;3.95;;;1.88;;
33954;SDS011;20233;50.804;7.126;2024-03-17T14:34:56;6.80;;;3.22;;
33954;SDS011;20233;50.804;7.126;2024-03-17T14:37:22;3.60;;;1.88;;
33954;SDS011;20233;50.804;7.126;2024-03-17T14:39:48;5.47;;;2.42;;
33954;SDS011;20233;50.804;7.126;2024-03-17T14:42:17;4.53;;;2.33;;
33954;SDS011;20233;50.804;7.126;2024-03-17T14:44:44;4.65;;;2.58;;
33954;SDS011;20233;50.804;7.126;2024-03-17T14:47:10;6.28;;;2.22;;
33954;SDS011;20233;50.804;7.126;2024-03-17T14:49:36;5.78;;;2.38;;
33954;SDS011;20233;50.804;7.126;2024-03-17T14:52:01;5.60;;;2.25;;
33954;SDS011;20233;50.804;7.126;2024-03-17T14:54:27;3.33;;;2.22;;
33954;SDS011;20233;50.804;7.126;2024-03-17T14:56:53;2.97;;;2.15;;
33954;SDS011;20233;50.804;7.126;2024-03-17T14:59:18;3.67;;;2.10;;
33954;SDS011;20233;50.804;7.126;2024-03-17T15:01:45;4.38;;;2.25;;
33954;SDS011;20233;50.804;7.126;2024-03-17T15:04:12;5.85;;;3.00;;
33954;SDS011;20233;50.804;7.126;2024-03-17T15:06:38;7.38;;;2.78;;
33954;SDS011;20233;50.804;7.126;2024-03-17T15:09:05;4.75;;;2.95;;
33954;SDS011;20233;50.804;7.126;2024-03-17T15:11:30;3.38;;;2.05;;
33954;SDS011;20233;50.804;7.126;2024-03-17T15:13:56;4.53;;;2.30;;
33954;SDS011;20233;50.804;7.126;2024-03-17T15:16:21;4.47;;;2.92;;
33954;SDS011;20233;50.804;7.126;2024-03-17T15:18:48;6.40;;;2.35;;
33954;SDS011;20233;50.804;7.126;2024-03-17T15:21:13;3.42;;;2.13;;